Time;durP1;ratioP1;P1;durP2;ratioP2;P2;SDS_P1;SDS_P2;PMS_P1;PMS_P2;Temp;Humidity;BMP_temperature;BMP_pressure;BME280_temperature;BME280_humidity;BME280_pressure;Samples;Min_cycle;Max_cycle;Signal;HPM_P1;HPM_P2
2021/03/28 00:04:26;;;;;;;4.60;1.67;;;17.70;57.70;;;;;;10452430;28;20032;-55
2021/03/28 00:09:41;;;;;;;3.60;1.77;;;17.70;57.70;;;;;;10489971;28;20033;-55
2021/03/28 00:15:08;;;;;;;2.55;1.23;;;17.70;57.70;;;;;;10489885;28;20079;-55
2021/03/28 00:20:15;;;;;;;2.70;1.30;;;17.80;59.00;;;;;;10440593;28;20131;-54
2021/03/28 00:25:32;;;;;;;5.18;1.40;;;17.80;59.80;;;;;;10477384;28;541866;-55
2021/03/28 00:30:42;;;;;;;2.83;1.20;;;17.80;60.40;;;;;;10482579;28;20051;-55
2021/03/28 00:36:01;;;;;;;2.58;1.27;;;17.80;60.50;;;;;;10496514;28;20020;-55
2021/03/28 00:41:13;;;;;;;3.42;1.30;;;17.80;60.70;;;;;;10482859;28;20366;-56
2021/03/28 00:46:46;;;;;;;4.30;1.40;;;17.80;60.60;;;;;;10454578;28;20363;-53
2021/03/28 00:51:51;;;;;;;4.18;1.40;;;17.80;60.70;;;;;;10466495;28;20099;-53
2021/03/28 00:56:56;;;;;;;3.13;1.35;;;17.80;60.80;;;;;;10454430;28;20032;-54
2021/03/28 01:02:26;;;;;;;3.58;1.55;;;17.80;60.60;;;;;;10466643;28;20131;-53
2021/03/28 01:07:57;;;;;;;4.03;1.92;;;17.90;60.70;;;;;;10490247;28;20036;-53
2021/03/28 01:13:54;;;;;;;4.28;1.38;;;17.80;60.50;;;;;;10485393;28;20041;-53
2021/03/28 01:19:20;;;;;;;3.47;1.48;;;17.80;60.60;;;;;;10468788;28;20112;-53
2021/03/28 01:24:43;;;;;;;2.53;1.30;;;17.80;60.60;;;;;;10499181;28;20051;-53
2021/03/28 01:30:09;;;;;;;2.95;1.20;;;17.80;60.50;;;;;;10488927;28;20060;-55
2021/03/28 01:35:10;;;;;;;2.78;1.40;;;17.80;60.40;;;;;;10459644;28;20048;-54
2021/03/28 01:40:29;;;;;;;3.85;1.38;;;17.80;60.40;;;;;;10460596;28;20056;-55
2021/03/28 01:46:23;;;;;;;2.25;1.15;;;17.80;60.30;;;;;;10465410;28;20037;-55
2021/03/28 01:51:48;;;;;;;3.10;1.38;;;17.80;60.20;;;;;;10474759;28;20047;-55
2021/03/28 01:57:26;;;;;;;4.80;2.05;;;17.80;60.20;;;;;;10500201;28;20024;-55
2021/03/28 02:03:04;;;;;;;2.22;1.17;;;17.80;60.10;;;;;;10490818;28;20041;-56
2021/03/28 02:08:33;;;;;;;3.90;1.83;;;17.80;60.10;;;;;;10499192;28;20032;-55
2021/03/28 02:14:04;;;;;;;3.20;1.80;;;17.80;60.20;;;;;;10483800;28;20071;-55
2021/03/28 02:19:26;;;;;;;2.33;1.20;;;17.80;60.00;;;;;;10458979;28;20036;-55
2021/03/28 02:24:44;;;;;;;3.20;1.42;;;17.80;59.90;;;;;;10481852;28;20564;-55
2021/03/28 02:29:59;;;;;;;5.60;1.80;;;17.80;59.90;;;;;;10464683;28;20432;-55
2021/03/28 02:35:29;;;;;;;3.42;1.17;;;17.80;59.80;;;;;;10489291;28;20028;-55
2021/03/28 02:40:44;;;;;;;4.07;1.77;;;17.80;59.70;;;;;;10497794;28;20032;-55
2021/03/28 02:45:48;;;;;;;2.42;1.00;;;17.80;59.70;;;;;;10462941;28;20087;-56
2021/03/28 02:51:10;;;;;;;3.50;1.35;;;17.80;59.60;;;;;;10457825;28;20488;-55
2021/03/28 02:56:47;;;;;;;4.50;1.80;;;17.80;59.60;;;;;;10497782;28;20028;-55
2021/03/28 03:02:19;;;;;;;2.95;1.30;;;17.80;59.50;;;;;;10472369;28;20071;-55
2021/03/28 03:08:01;;;;;;;2.03;0.93;;;17.80;59.50;;;;;;10457466;28;20469;-55
2021/03/28 03:13:21;;;;;;;2.95;1.10;;;17.70;59.40;;;;;;10466291;28;20392;-55
2021/03/28 03:19:17;;;;;;;2.88;1.10;;;17.80;59.40;;;;;;10484794;28;20024;-55
2021/03/28 03:25:09;;;;;;;2.80;0.93;;;17.80;59.30;;;;;;10465566;28;20528;-56
2021/03/28 03:30:45;;;;;;;3.00;1.30;;;17.80;59.30;;;;;;10458904;28;20041;-55
2021/03/28 03:36:04;;;;;;;3.03;1.33;;;17.70;59.20;;;;;;10476259;28;20040;-55
2021/03/28 03:41:25;;;;;;;3.38;1.20;;;17.70;59.20;;;;;;10458008;28;20044;-55
2021/03/28 03:46:31;;;;;;;2.90;1.20;;;17.70;59.20;;;;;;10497408;28;20113;-55
2021/03/28 03:52:12;;;;;;;2.28;0.98;;;17.70;59.20;;;;;;10485004;28;20033;-55
2021/03/28 03:57:52;;;;;;;2.63;0.98;;;17.80;59.20;;;;;;10482821;28;20033;-55
2021/03/28 04:03:21;;;;;;;2.22;1.30;;;17.70;59.10;;;;;;10473131;28;20390;-55
2021/03/28 04:09:00;;;;;;;2.38;1.10;;;17.70;59.10;;;;;;10480390;28;20036;-55
2021/03/28 04:14:34;;;;;;;2.45;1.65;;;17.70;59.00;;;;;;10463555;28;20440;-55
2021/03/28 04:19:54;;;;;;;2.25;1.20;;;17.70;58.90;;;;;;10453941;28;20119;-55
2021/03/28 04:25:40;;;;;;;3.05;1.40;;;17.70;59.00;;;;;;10483556;28;20060;-55
2021/03/28 04:30:58;;;;;;;2.25;1.30;;;17.70;59.00;;;;;;10471354;28;20421;-56
2021/03/28 04:36:55;;;;;;;2.60;1.08;;;17.80;58.90;;;;;;10475143;28;20424;-56
2021/03/28 04:42:33;;;;;;;1.80;0.82;;;17.70;58.80;;;;;;10363940;28;20045;-55
2021/03/28 04:48:19;;;;;;;2.17;1.00;;;17.70;58.90;;;;;;10493557;28;20073;-56
2021/03/28 04:53:56;;;;;;;1.65;1.00;;;17.70;58.80;;;;;;10480271;28;20025;-55
2021/03/28 04:59:13;;;;;;;2.03;0.95;;;17.70;58.90;;;;;;10491737;28;20033;-55
2021/03/28 05:04:54;;;;;;;2.42;1.02;;;17.70;58.90;;;;;;10471955;28;20071;-55
2021/03/28 05:10:51;;;;;;;2.40;1.25;;;17.70;58.90;;;;;;10468686;28;20397;-55
2021/03/28 05:15:58;;;;;;;3.25;1.20;;;17.70;58.90;;;;;;10463665;28;20037;-52
2021/03/28 05:21:41;;;;;;;4.97;1.13;;;17.70;58.90;;;;;;10464941;28;20064;-57
2021/03/28 05:27:22;;;;;;;6.28;1.45;;;17.80;59.50;;;;;;10491478;28;20033;-53
2021/03/28 05:33:09;;;;;;;5.13;1.05;;;17.80;59.90;;;;;;10467545;28;20044;-53
2021/03/28 05:38:59;;;;;;;11.15;1.63;;;17.80;60.20;;;;;;10480903;28;20485;-57
2021/03/28 05:44:37;;;;;;;6.55;1.58;;;17.80;59.90;;;;;;10477510;28;20055;-57
2021/03/28 05:50:03;;;;;;;4.18;1.27;;;17.80;60.90;;;;;;10460338;28;20412;-58
2021/03/28 05:55:31;;;;;;;9.55;2.03;;;17.70;60.90;;;;;;10471525;28;20041;-58
2021/03/28 06:01:16;;;;;;;5.35;1.98;;;17.70;60.70;;;;;;10488910;28;20039;-57
2021/03/28 06:07:00;;;;;;;3.75;1.70;;;17.70;60.90;;;;;;10454255;28;20040;-59
2021/03/28 06:12:36;;;;;;;3.95;1.25;;;17.70;60.70;;;;;;10460939;28;20148;-59
2021/03/28 06:18:30;;;;;;;6.55;1.45;;;17.70;61.10;;;;;;10476549;28;20040;-59
2021/03/28 06:24:21;;;;;;;17.05;2.45;;;17.60;60.90;;;;;;10485899;28;20511;-59
2021/03/28 06:29:44;;;;;;;;;;;17.60;61.20;;;;;;10462642;28;20033;-58
2021/03/28 06:35:18;;;;;;;5.13;1.40;;;17.70;60.90;;;;;;10498779;28;19912;-59
2021/03/28 06:40:56;;;;;;;4.72;1.58;;;17.70;60.70;;;;;;10480827;28;20028;-58
2021/03/28 06:46:17;;;;;;;5.60;1.60;;;17.70;60.40;;;;;;10458004;28;20049;-59
2021/03/28 06:51:27;;;;;;;8.93;1.65;;;17.70;60.00;;;;;;10469951;28;20032;-59
2021/03/28 06:56:36;;;;;;;6.32;1.00;;;17.70;59.60;;;;;;10463119;28;20421;-59
2021/03/28 07:02:19;;;;;;;7.40;2.58;;;17.70;59.70;;;;;;10466158;28;20073;-60
2021/03/28 07:07:53;;;;;;;11.35;1.83;;;17.80;60.60;;;;;;10456668;28;20486;-56
2021/03/28 07:14:10;;;;;;;11.68;2.38;;;17.80;60.90;;;;;;10455752;28;20025;-59
2021/03/28 07:19:22;;;;;;;10.20;2.38;;;17.80;61.00;;;;;;10321715;28;20058;-61
2021/03/28 07:25:20;;;;;;;9.95;2.08;;;17.70;60.80;;;;;;10444819;28;20075;-60
2021/03/28 07:31:03;;;;;;;11.50;2.72;;;17.70;61.00;;;;;;10485241;28;20489;-58
2021/03/28 07:36:54;;;;;;;14.85;3.00;;;17.70;61.10;;;;;;10485310;28;20020;-59
2021/03/28 07:42:48;;;;;;;12.23;2.40;;;17.70;61.20;;;;;;10462164;28;20033;-60
2021/03/28 07:48:31;;;;;;;9.40;2.00;;;17.60;61.30;;;;;;10447087;28;20039;-60
2021/03/28 07:54:23;;;;;;;6.53;2.55;;;17.60;61.20;;;;;;10451894;28;20477;-60
2021/03/28 07:59:54;;;;;;;12.43;2.70;;;17.50;61.00;;;;;;10448311;28;20040;-60
2021/03/28 08:05:13;;;;;;;9.88;2.30;;;17.50;61.00;;;;;;10454358;28;20033;-59
2021/03/28 08:10:41;;;;;;;10.70;2.63;;;17.50;60.90;;;;;;10455173;28;20040;-59
2021/03/28 08:16:31;;;;;;;9.82;2.35;;;17.40;60.90;;;;;;10472711;28;20024;-59
2021/03/28 08:22:00;;;;;;;11.68;3.45;;;17.40;60.80;;;;;;10492091;28;20048;-60
2021/03/28 08:27:44;;;;;;;6.47;1.60;;;17.50;60.70;;;;;;10505078;28;20032;-60
2021/03/28 08:33:10;;;;;;;4.60;1.83;;;17.50;60.60;;;;;;10474377;28;20029;-60
2021/03/28 08:38:26;;;;;;;6.93;2.53;;;17.40;60.90;;;;;;10484304;28;20040;-60
2021/03/28 08:44:23;;;;;;;6.07;1.70;;;17.40;60.80;;;;;;10473238;28;20039;-60
2021/03/28 08:49:48;;;;;;;5.88;2.00;;;17.40;60.80;;;;;;10475134;28;20124;-59
2021/03/28 08:55:45;;;;;;;8.73;2.10;;;17.40;60.70;;;;;;10476209;28;20037;-60
2021/03/28 09:01:10;;;;;;;6.18;1.52;;;17.40;60.70;;;;;;10466856;28;20380;-60
2021/03/28 09:06:19;;;;;;;4.78;2.60;;;17.30;60.50;;;;;;10488934;28;20025;-60
2021/03/28 09:12:01;;;;;;;6.85;1.67;;;17.30;60.90;;;;;;10478819;28;20721;-60
2021/03/28 09:17:39;;;;;;;5.82;1.80;;;17.30;61.00;;;;;;10481525;28;20066;-60
2021/03/28 09:22:48;;;;;;;4.88;1.05;;;17.30;60.60;;;;;;10478143;28;20079;-60
2021/03/28 09:28:26;;;;;;;3.37;1.10;;;17.30;60.90;;;;;;10498194;28;20032;-59
2021/03/28 09:34:01;;;;;;;3.15;1.27;;;17.30;60.70;;;;;;10491905;28;20080;-60
2021/03/28 09:39:38;;;;;;;3.20;1.45;;;17.30;60.40;;;;;;10468674;28;20025;-60
2021/03/28 09:44:53;;;;;;;5.50;1.52;;;17.30;60.60;;;;;;10472053;28;20037;-60
2021/03/28 09:50:19;;;;;;;3.53;1.35;;;17.30;60.50;;;;;;10468153;28;20060;-60
2021/03/28 09:55:43;;;;;;;4.63;2.20;;;17.30;60.60;;;;;;10453848;28;20397;-60
2021/03/28 10:01:17;;;;;;;6.03;1.52;;;17.30;60.60;;;;;;10467035;28;20037;-59
2021/03/28 10:06:21;;;;;;;13.57;2.55;;;17.30;60.60;;;;;;10462734;28;20029;-58
2021/03/28 10:11:51;;;;;;;7.90;1.92;;;17.40;61.20;;;;;;10468750;28;20028;-59
2021/03/28 10:17:44;;;;;;;8.23;1.95;;;17.50;61.70;;;;;;10468414;28;20044;-59
2021/03/28 10:23:06;;;;;;;11.18;1.60;;;17.50;62.00;;;;;;10484242;28;20489;-59
2021/03/28 10:28:55;;;;;;;14.50;2.22;;;17.50;62.10;;;;;;10513672;28;20024;-59
2021/03/28 10:34:13;;;;;;;8.82;2.45;;;17.50;62.20;;;;;;10487096;28;20059;-60
2021/03/28 10:40:14;;;;;;;17.60;2.45;;;17.50;62.20;;;;;;10497107;28;20017;-60
2021/03/28 10:45:22;;;;;;;13.02;2.20;;;17.60;62.10;;;;;;10452877;28;20052;-61
2021/03/28 10:51:00;;;;;;;17.80;2.72;;;17.60;62.10;;;;;;10477402;28;20116;-60
2021/03/28 10:56:26;;;;;;;17.23;2.85;;;17.50;62.40;;;;;;10476472;28;20029;-59
2021/03/28 11:01:45;;;;;;;26.35;3.10;;;17.40;62.20;;;;;;10456556;28;20098;-60
2021/03/28 11:07:31;;;;;;;21.52;4.20;;;17.40;61.90;;;;;;10456484;28;20035;-61
2021/03/28 11:13:18;;;;;;;26.17;5.22;;;17.40;61.50;;;;;;10476772;28;20052;-60
2021/03/28 11:18:59;;;;;;;27.08;3.67;;;17.30;61.50;;;;;;10469201;28;20025;-60
2021/03/28 11:24:26;;;;;;;16.90;3.85;;;17.30;61.20;;;;;;10455651;28;20135;-60
2021/03/28 11:30:32;;;;;;;12.85;3.55;;;17.30;60.60;;;;;;10457657;28;20037;-60
2021/03/28 11:35:44;;;;;;;6.22;2.25;;;17.30;60.40;;;;;;10495514;28;20032;-60
2021/03/28 11:40:53;;;;;;;11.85;3.92;;;17.30;60.40;;;;;;10466455;28;20028;-60
2021/03/28 11:46:03;;;;;;;11.00;2.72;;;17.30;60.40;;;;;;10485085;28;20028;-60
2021/03/28 11:51:16;;;;;;;14.32;3.17;;;17.20;60.30;;;;;;10477601;28;20393;-60
2021/03/28 11:56:56;;;;;;;12.25;2.25;;;17.20;60.30;;;;;;10455590;28;20033;-60
2021/03/28 12:02:03;;;;;;;9.88;2.40;;;17.30;60.30;;;;;;10469540;28;20528;-60
2021/03/28 12:07:42;;;;;;;9.20;2.55;;;17.30;60.20;;;;;;10481704;28;20064;-60
2021/03/28 12:12:48;;;;;;;10.98;3.00;;;17.30;60.10;;;;;;10465864;28;20037;-60
2021/03/28 12:18:21;;;;;;;9.77;2.13;;;17.30;60.00;;;;;;10455121;28;20028;-60
2021/03/28 12:23:56;;;;;;;6.35;1.95;;;17.40;59.90;;;;;;10481743;28;20041;-60
2021/03/28 12:29:19;;;;;;;6.75;1.98;;;17.40;59.70;;;;;;10481910;28;20033;-60
2021/03/28 12:34:40;;;;;;;6.55;1.95;;;17.40;59.80;;;;;;10454325;28;20116;-60
2021/03/28 12:39:40;;;;;;;8.65;2.13;;;17.40;59.60;;;;;;10453389;28;20485;-59
2021/03/28 12:44:47;;;;;;;4.80;1.50;;;17.40;59.60;;;;;;10479601;28;20115;-60
2021/03/28 12:49:58;;;;;;;7.53;2.00;;;17.40;59.50;;;;;;10488364;28;20040;-60
2021/03/28 12:55:30;;;;;;;7.22;1.30;;;17.50;60.10;;;;;;10454121;28;20117;-60
2021/03/28 13:00:39;;;;;;;6.45;1.85;;;17.50;59.40;;;;;;10457544;28;20033;-60
2021/03/28 13:06:11;;;;;;;8.10;2.00;;;17.50;59.40;;;;;;10493410;28;20068;-60
2021/03/28 13:11:13;;;;;;;5.15;1.60;;;17.40;59.50;;;;;;10484172;28;20167;-60
2021/03/28 13:16:28;;;;;;;5.80;1.70;;;17.40;59.40;;;;;;10460311;28;20032;-60
2021/03/28 13:21:38;;;;;;;8.07;2.50;;;17.50;59.30;;;;;;10474553;28;20045;-60
2021/03/28 13:27:08;;;;;;;6.82;1.10;;;17.50;59.40;;;;;;10489643;28;20370;-60
2021/03/28 13:32:35;;;;;;;8.73;1.75;;;17.40;59.30;;;;;;10456645;28;20063;-60
2021/03/28 13:37:54;;;;;;;6.93;1.85;;;17.40;59.20;;;;;;10459544;28;20029;-61
2021/03/28 13:43:01;;;;;;;9.70;1.90;;;17.50;59.20;;;;;;10491421;28;20028;-60
2021/03/28 13:48:11;;;;;;;9.48;2.15;;;17.50;58.90;;;;;;10480147;28;20017;-60
2021/03/28 13:53:22;;;;;;;12.02;3.00;;;17.50;58.70;;;;;;10475900;28;20078;-65
2021/03/28 13:58:29;;;;;;;6.70;2.00;;;17.50;58.50;;;;;;10479585;28;20017;-64
2021/03/28 14:03:35;;;;;;;6.20;2.17;;;17.60;58.30;;;;;;10477459;28;20067;-58
2021/03/28 14:08:36;;;;;;;10.95;2.97;;;17.60;58.20;;;;;;10495514;28;20434;-59
2021/03/28 14:13:38;;;;;;;7.78;2.03;;;17.60;58.50;;;;;;10476809;28;20043;-59
2021/03/28 14:18:54;;;;;;;12.50;1.90;;;17.60;58.80;;;;;;10463353;28;20035;-59
2021/03/28 14:23:58;;;;;;;15.75;2.83;;;17.60;59.10;;;;;;10493584;28;20059;-59
2021/03/28 14:28:59;;;;;;;23.27;4.32;;;17.60;59.40;;;;;;10477580;28;20040;-60
2021/03/28 14:34:26;;;;;;;20.58;4.43;;;17.60;59.70;;;;;;10457524;28;20373;-59
2021/03/28 14:40:00;;;;;;;15.00;3.33;;;17.60;59.80;;;;;;10457636;28;20787;-62
2021/03/28 14:45:43;;;;;;;20.52;3.35;;;17.60;60.00;;;;;;10453654;28;20021;-61
2021/03/28 14:51:17;;;;;;;12.63;3.65;;;17.60;60.10;;;;;;10442621;28;20119;-61
2021/03/28 14:57:05;;;;;;;21.30;4.47;;;17.60;60.20;;;;;;10455687;28;20036;-60
2021/03/28 15:02:18;;;;;;;18.77;3.55;;;17.60;60.60;;;;;;10454927;28;20031;-64
2021/03/28 15:07:51;;;;;;;25.75;4.25;;;17.50;60.70;;;;;;10457608;28;20477;-62
2021/03/28 15:12:51;;;;;;;25.23;5.05;;;17.50;61.50;;;;;;10468743;28;20071;-62
2021/03/28 15:18:44;;;;;;;18.45;4.18;;;17.50;61.40;;;;;;10470519;28;20436;-62
2021/03/28 15:24:30;;;;;;;16.63;4.68;;;17.50;61.70;;;;;;10489758;28;20059;-61
2021/03/28 15:29:40;;;;;;;14.43;4.40;;;17.60;61.80;;;;;;10464370;28;20048;-60
2021/03/28 15:35:32;;;;;;;17.02;3.60;;;17.60;61.80;;;;;;10482768;28;20114;-60
2021/03/28 15:40:42;;;;;;;12.95;3.80;;;17.60;61.20;;;;;;10454875;28;20033;-59
2021/03/28 15:46:17;;;;;;;15.65;3.72;;;17.60;60.80;;;;;;10495547;28;20495;-60
2021/03/28 15:51:32;;;;;;;10.68;3.28;;;17.70;60.30;;;;;;10454626;28;20131;-61
2021/03/28 15:56:45;;;;;;;9.50;3.45;;;17.70;59.70;;;;;;10496139;28;20025;-63
2021/03/28 16:02:18;;;;;;;5.75;3.67;;;17.80;60.70;;;;;;10476165;28;20029;-60
2021/03/28 16:08:22;;;;;;;14.63;3.83;;;17.80;60.50;;;;;;10470229;28;20036;-60
2021/03/28 16:14:02;;;;;;;14.35;3.85;;;18.00;61.40;;;;;;10483607;28;20444;-60
2021/03/28 16:19:21;;;;;;;17.35;4.25;;;18.10;63.00;;;;;;10468972;28;20074;-60
2021/03/28 16:24:56;;;;;;;12.80;3.72;;;18.10;63.30;;;;;;10451050;28;20547;-59
2021/03/28 16:30:26;;;;;;;15.65;4.38;;;18.20;64.10;;;;;;10481238;28;20040;-60
2021/03/28 16:36:11;;;;;;;8.77;3.92;;;18.20;66.50;;;;;;10467721;28;20081;-60
2021/03/28 16:41:24;;;;;;;14.43;3.55;;;18.20;66.90;;;;;;10481591;28;20025;-62
2021/03/28 16:46:27;;;;;;;11.38;3.67;;;18.10;65.10;;;;;;10478273;28;20117;-61
2021/03/28 16:51:38;;;;;;;7.88;3.05;;;18.10;65.30;;;;;;10469116;28;20085;-60
2021/03/28 16:57:01;;;;;;;15.25;4.07;;;18.00;65.00;;;;;;10503971;28;20108;-60
2021/03/28 17:02:04;;;;;;;9.63;3.47;;;18.00;64.40;;;;;;10480300;28;20067;-59
2021/03/28 17:07:16;;;;;;;7.32;3.70;;;17.90;64.20;;;;;;10460747;28;20493;-60
2021/03/28 17:12:43;;;;;;;9.45;3.38;;;17.90;64.10;;;;;;10459629;28;20025;-61
2021/03/28 17:18:13;;;;;;;7.72;2.90;;;17.80;63.80;;;;;;10456003;28;20037;-63
2021/03/28 17:23:39;;;;;;;6.82;2.78;;;17.80;64.00;;;;;;10460140;28;20033;-60
2021/03/28 17:28:41;;;;;;;6.95;2.80;;;17.80;64.20;;;;;;10462000;28;20043;-62
2021/03/28 17:33:42;;;;;;;7.45;4.32;;;17.80;64.00;;;;;;10460717;28;20025;-60
2021/03/28 17:39:32;;;;;;;11.27;3.42;;;17.80;64.40;;;;;;10474648;28;20029;-61
2021/03/28 17:44:33;;;;;;;5.97;2.60;;;17.80;64.60;;;;;;10461260;28;20033;-61
2021/03/28 17:49:37;;;;;;;7.13;3.17;;;17.80;64.30;;;;;;10473231;28;20036;-61
2021/03/28 17:55:15;;;;;;;8.48;3.05;;;17.80;64.40;;;;;;10483875;28;20036;-60
2021/03/28 18:00:19;;;;;;;5.07;2.67;;;17.80;64.50;;;;;;10491959;28;20405;-61
2021/03/28 18:05:23;;;;;;;11.13;3.00;;;17.70;64.50;;;;;;10458092;28;20070;-60
2021/03/28 18:10:50;;;;;;;9.95;3.13;;;17.70;64.40;;;;;;10454380;28;20111;-60
2021/03/28 18:16:00;;;;;;;5.30;2.83;;;17.70;64.30;;;;;;10458987;28;20029;-60
2021/03/28 18:21:32;;;;;;;4.68;2.25;;;17.70;64.60;;;;;;10468902;28;20098;-60
2021/03/28 18:26:51;;;;;;;6.72;2.35;;;17.70;64.60;;;;;;10461577;28;20040;-60
2021/03/28 18:32:06;;;;;;;8.93;2.50;;;17.70;64.70;;;;;;10474527;28;20029;-60
2021/03/28 18:37:29;;;;;;;8.00;2.90;;;17.70;64.70;;;;;;10457788;28;20040;-59
2021/03/28 18:42:32;;;;;;;5.63;2.78;;;17.70;64.70;;;;;;10472077;28;20480;-60
2021/03/28 18:47:35;;;;;;;7.15;2.80;;;17.60;64.50;;;;;;10460580;28;20370;-59
2021/03/28 18:52:35;;;;;;;7.25;2.50;;;17.60;64.70;;;;;;10474871;28;20051;-60
2021/03/28 18:57:50;;;;;;;5.47;2.70;;;17.60;64.50;;;;;;10483110;28;20053;-60
2021/03/28 19:03:02;;;;;;;10.40;2.72;;;17.60;64.70;;;;;;10477134;28;20111;-59
2021/03/28 19:08:37;;;;;;;4.85;2.20;;;17.60;64.60;;;;;;10476230;28;20047;-60
2021/03/28 19:13:38;;;;;;;10.45;2.72;;;17.60;64.60;;;;;;10465813;28;20051;-60
2021/03/28 19:18:39;;;;;;;9.68;2.13;;;17.60;64.70;;;;;;10453232;28;20017;-58
2021/03/28 19:23:49;;;;;;;8.52;2.20;;;17.70;64.60;;;;;;10454319;28;20047;-62
2021/03/28 19:29:20;;;;;;;5.28;2.47;;;17.60;64.40;;;;;;10481048;28;20032;-62
2021/03/28 19:34:26;;;;;;;12.90;3.28;;;17.60;64.40;;;;;;10452624;28;20036;-61
2021/03/28 19:39:28;;;;;;;6.00;2.63;;;17.50;64.30;;;;;;10453067;28;20023;-61
2021/03/28 19:45:02;;;;;;;7.43;2.53;;;17.50;64.20;;;;;;10472323;28;20457;-61
2021/03/28 19:50:08;;;;;;;5.72;2.97;;;17.50;64.10;;;;;;10453479;28;20029;-61
2021/03/28 19:55:08;;;;;;;9.50;2.83;;;17.40;63.90;;;;;;10455365;28;20449;-62
2021/03/28 20:00:24;;;;;;;5.78;2.30;;;17.50;64.00;;;;;;10455830;28;20052;-61
2021/03/28 20:05:48;;;;;;;12.90;2.83;;;17.50;63.90;;;;;;10493013;28;20048;-62
2021/03/28 20:10:54;;;;;;;7.85;3.05;;;17.50;63.70;;;;;;10484276;28;20037;-62
2021/03/28 20:15:57;;;;;;;5.60;2.15;;;17.50;63.50;;;;;;10457970;28;20036;-62
2021/03/28 20:20:59;;;;;;;6.00;2.55;;;17.60;63.40;;;;;;10461840;28;20057;-62
2021/03/28 20:26:12;;;;;;;4.35;1.58;;;17.70;63.20;;;;;;10463562;28;20036;-62
2021/03/28 20:31:15;;;;;;;5.82;2.03;;;17.70;63.10;;;;;;10476245;28;20033;-62
2021/03/28 20:36:18;;;;;;;6.78;2.10;;;17.70;63.00;;;;;;10503779;28;20071;-62
2021/03/28 20:41:19;;;;;;;4.70;2.58;;;17.70;62.90;;;;;;10488298;28;20401;-62
2021/03/28 20:46:24;;;;;;;4.72;2.05;;;17.70;62.90;;;;;;10461407;28;20037;-61
2021/03/28 20:51:26;;;;;;;4.80;2.30;;;17.70;62.70;;;;;;10468854;28;20037;-62
2021/03/28 20:56:30;;;;;;;3.25;1.58;;;17.70;62.60;;;;;;10463123;28;20028;-62
2021/03/28 21:01:41;;;;;;;5.85;2.83;;;17.70;62.60;;;;;;10472438;28;20036;-62
2021/03/28 21:06:50;;;;;;;5.55;1.95;;;17.70;62.60;;;;;;10477266;28;20033;-62
2021/03/28 21:11:59;;;;;;;4.18;2.25;;;17.70;62.50;;;;;;10462253;28;20112;-62
2021/03/28 21:17:04;;;;;;;5.30;1.97;;;17.80;62.50;;;;;;10485339;28;20040;-61
2021/03/28 21:22:05;;;;;;;4.68;1.67;;;17.80;62.40;;;;;;10467442;28;20131;-62
2021/03/28 21:27:08;;;;;;;5.93;2.67;;;17.80;62.30;;;;;;10491687;28;20381;-62
2021/03/28 21:32:10;;;;;;;4.68;1.75;;;17.80;62.20;;;;;;10465319;28;20179;-62
2021/03/28 21:37:15;;;;;;;5.03;2.13;;;17.80;62.20;;;;;;10497342;28;20039;-62
2021/03/28 21:42:18;;;;;;;4.20;1.50;;;17.80;62.10;;;;;;10496735;28;20037;-62
2021/03/28 21:47:24;;;;;;;4.80;1.45;;;17.80;62.00;;;;;;10460868;28;20056;-61
2021/03/28 21:52:38;;;;;;;6.38;1.92;;;17.80;62.10;;;;;;10484965;28;20086;-62
2021/03/28 21:57:39;;;;;;;2.75;1.52;;;17.80;62.00;;;;;;10459288;28;20096;-61
2021/03/28 22:02:40;;;;;;;3.30;1.83;;;17.80;61.90;;;;;;10460000;28;20474;-61
2021/03/28 22:08:05;;;;;;;3.50;1.30;;;17.80;61.80;;;;;;10489458;28;20024;-62
2021/03/28 22:13:07;;;;;;;2.45;1.45;;;17.80;61.70;;;;;;10493318;28;20044;-61
2021/03/28 22:18:12;;;;;;;3.60;1.85;;;17.80;61.20;;;;;;10459710;28;20064;-61
2021/03/28 22:23:14;;;;;;;3.95;1.60;;;17.80;61.60;;;;;;10460962;28;20119;-62
2021/03/28 22:28:15;;;;;;;2.75;1.23;;;17.70;61.60;;;;;;10494725;28;20032;-62
2021/03/28 22:33:18;;;;;;;4.18;1.52;;;17.80;61.60;;;;;;10457570;28;20071;-62
2021/03/28 22:38:21;;;;;;;3.70;1.75;;;17.70;61.50;;;;;;10489501;28;20449;-61
2021/03/28 22:43:27;;;;;;;4.32;1.70;;;17.80;61.50;;;;;;10485346;28;20120;-61
2021/03/28 22:48:31;;;;;;;2.58;1.25;;;17.80;61.40;;;;;;10457257;28;20477;-61
2021/03/28 22:53:33;;;;;;;3.63;1.45;;;17.80;61.30;;;;;;10457728;28;20389;-61
2021/03/28 22:58:47;;;;;;;2.63;1.40;;;17.80;61.20;;;;;;10457853;28;20029;-62
2021/03/28 23:03:50;;;;;;;3.38;1.13;;;17.80;61.10;;;;;;10456432;28;20043;-62
2021/03/28 23:08:53;;;;;;;2.92;1.50;;;17.80;61.10;;;;;;10457490;28;20044;-61
2021/03/28 23:13:54;;;;;;;2.13;1.10;;;17.80;61.10;;;;;;10456991;28;20028;-62
2021/03/28 23:19:06;;;;;;;2.95;1.48;;;17.80;61.00;;;;;;10457273;28;20466;-62
2021/03/28 23:24:19;;;;;;;2.33;1.50;;;17.80;61.00;;;;;;10456543;28;20382;-62
2021/03/28 23:29:26;;;;;;;2.58;1.40;;;17.80;61.00;;;;;;10481533;28;20033;-61
2021/03/28 23:34:27;;;;;;;2.50;1.25;;;17.80;61.00;;;;;;10456831;28;20485;-62
2021/03/28 23:39:28;;;;;;;2.58;1.30;;;17.80;61.00;;;;;;10456455;28;20036;-61
2021/03/28 23:44:45;;;;;;;4.35;1.48;;;17.80;61.00;;;;;;10455967;28;20085;-62
2021/03/28 23:49:57;;;;;;;3.13;1.55;;;17.80;61.00;;;;;;10484474;28;20511;-62
2021/03/28 23:54:59;;;;;;;2.38;1.30;;;17.80;60.90;;;;;;10492610;28;20029;-61
